Time;durP1;ratioP1;P1;durP2;ratioP2;P2;SDS_P1;SDS_P2;PMS_P1;PMS_P2;Temp;Humidity;BMP_temperature;BMP_pressure;BME280_temperature;BME280_humidity;BME280_pressure;Samples;Min_cycle;Max_cycle;Signal;HPM_P1;HPM_P2
2024/02/24 05:02:43;;;;;;;33.17;1.90;;;1.10;97.30;;;;;;4999387;23;20920;-86
2024/02/24 05:05:11;;;;;;;1.20;1.10;;;1.10;97.30;;;;;;4953422;28;20522;-86
2024/02/24 05:07:36;;;;;;;1.00;0.90;;;1.10;97.30;;;;;;4953299;28;20274;-84
2024/02/24 05:10:02;;;;;;;1.33;1.23;;;1.10;97.30;;;;;;4953029;28;20450;-86
2024/02/24 05:12:30;;;;;;;1.37;1.27;;;1.00;97.30;;;;;;4941329;29;20207;-86
2024/02/24 05:15:17;;;;;;;;;;;;;;;;;;;;;
2024/02/24 05:17:50;;;;;;;1.53;1.43;;;0.80;97.30;;;;;;4959180;28;20430;-86
2024/02/24 05:20:31;;;;;;;1.40;1.30;;;0.70;97.30;;;;;;4946004;28;20440;-86
2024/02/24 05:23:17;;;;;;;;;;;;;;;;;;;;;
2024/02/24 05:25:42;;;;;;;1.10;1.00;;;0.60;97.30;;;;;;4940738;28;20599;-86
2024/02/24 05:28:11;;;;;;;1.00;0.90;;;0.60;97.30;;;;;;4931892;29;20424;-86
2024/02/24 05:30:42;;;;;;;1.10;1.00;;;0.50;97.30;;;;;;4933096;28;20180;-87
2024/02/24 05:33:52;;;;;;;2.27;2.07;;;0.50;97.30;;;;;;4931984;29;20469;-86
2024/02/24 05:36:31;;;;;;;1.20;1.10;;;0.50;97.30;;;;;;4924663;29;20669;-86
2024/02/24 05:39:03;;;;;;;1.50;1.40;;;0.50;97.30;;;;;;4937125;29;20465;-86
2024/02/24 05:41:33;;;;;;;1.10;1.00;;;0.50;97.30;;;;;;4935787;29;20718;-86
2024/02/24 05:44:02;;;;;;;1.30;1.20;;;0.50;97.30;;;;;;4937010;29;20535;-86
2024/02/24 05:46:33;;;;;;;1.30;1.20;;;0.50;97.30;;;;;;4931640;29;20448;-86
2024/02/24 05:49:01;;;;;;;4.60;1.87;;;0.50;97.30;;;;;;4931281;29;20448;-87
2024/02/24 05:51:33;;;;;;;1.37;1.27;;;0.50;97.30;;;;;;4936567;28;20442;-87
2024/02/24 05:54:02;;;;;;;1.40;1.30;;;0.60;97.30;;;;;;4932612;29;20584;-86
2024/02/24 05:56:30;;;;;;;14.63;1.93;;;0.70;97.30;;;;;;4936954;28;20879;-86
2024/02/24 05:59:13;;;;;;;1.50;1.40;;;0.70;97.30;;;;;;4938692;29;20989;-86
2024/02/24 06:01:41;;;;;;;1.20;1.10;;;0.80;97.30;;;;;;4931703;28;20515;-86
2024/02/24 06:04:31;;;;;;;1.20;1.10;;;0.90;97.30;;;;;;4931356;29;20470;-86
2024/02/24 06:07:03;;;;;;;1.40;1.30;;;0.90;97.30;;;;;;4937680;29;20575;-86
2024/02/24 06:09:31;;;;;;;2.33;2.07;;;1.00;97.30;;;;;;4936917;29;21016;-86
2024/02/24 06:12:11;;;;;;;1.20;1.10;;;1.00;97.30;;;;;;4937289;29;20435;-86
2024/02/24 06:14:41;;;;;;;1.00;0.90;;;1.10;97.30;;;;;;4931253;29;20857;-86
2024/02/24 06:17:22;;;;;;;1.70;1.63;;;1.20;97.30;;;;;;4931919;29;20486;-86
2024/02/24 06:19:51;;;;;;;2.20;1.43;;;1.20;97.30;;;;;;4937058;29;21033;-86
2024/02/24 06:22:42;;;;;;;1.30;1.20;;;1.10;97.30;;;;;;4935006;29;20466;-86
2024/02/24 06:25:21;;;;;;;1.10;1.00;;;1.00;97.30;;;;;;4933044;29;20543;-86
2024/02/24 06:28:11;;;;;;;1.47;1.37;;;0.90;97.30;;;;;;4933017;29;20478;-86
2024/02/24 06:34:22;;;;;;;1.30;1.20;;;0.80;97.30;;;;;;4895534;29;20503;-86
2024/02/24 06:36:53;;;;;;;0.97;0.93;;;0.80;97.30;;;;;;4879064;29;20590;-86
2024/02/24 06:39:21;;;;;;;1.10;1.00;;;0.90;97.30;;;;;;4872149;29;20426;-86
2024/02/24 06:41:52;;;;;;;1.10;1.00;;;0.90;97.30;;;;;;4877871;29;20622;-86
2024/02/24 06:44:41;;;;;;;1.97;1.87;;;1.00;97.30;;;;;;4906533;29;20817;-86
2024/02/24 06:47:53;;;;;;;2.40;2.20;;;1.00;97.30;;;;;;4938387;29;20427;-86
2024/02/24 06:50:22;;;;;;;1.00;0.90;;;1.10;97.30;;;;;;4938565;29;20523;-86
2024/02/24 06:52:51;;;;;;;1.10;1.00;;;1.30;97.30;;;;;;4938632;29;20458;-86
2024/02/24 06:55:19;;;;;;;1.20;1.10;;;1.40;97.30;;;;;;4933563;29;20506;-86
2024/02/24 06:58:21;;;;;;;;;;;;;;;;;;;;;
2024/02/24 07:00:52;;;;;;;1.20;1.10;;;1.50;97.30;;;;;;4937633;29;20427;-86
2024/02/24 07:03:20;;;;;;;1.33;1.23;;;1.50;97.30;;;;;;4952418;28;20434;-86
2024/02/24 07:06:12;;;;;;;1.60;1.50;;;1.60;97.30;;;;;;4936357;29;20648;-86
2024/02/24 07:09:11;;;;;;;0.90;0.80;;;1.70;97.30;;;;;;4921865;29;20438;-86
2024/02/24 07:12:02;;;;;;;1.10;1.00;;;1.90;97.30;;;;;;4933110;29;20436;-87
2024/02/24 07:14:41;;;;;;;;;;;;;;;;;;;;;
2024/02/24 07:17:33;;;;;;;1.00;0.90;;;2.30;97.30;;;;;;4938789;29;20440;-86
2024/02/24 07:20:03;;;;;;;1.63;1.53;;;2.50;97.30;;;;;;4940284;29;20502;-86
2024/02/24 07:22:41;;;;;;;2.17;2.00;;;2.70;97.30;;;;;;4936323;29;20478;-86
2024/02/24 07:28:01;;;;;;;1.10;1.00;;;3.00;97.30;;;;;;4940846;29;20451;-87
2024/02/24 07:30:33;;;;;;;1.00;0.90;;;3.30;97.30;;;;;;4956664;28;20492;-87
2024/02/24 07:33:02;;;;;;;0.93;0.83;;;3.50;97.30;;;;;;4958456;28;20238;-85
2024/02/24 07:35:32;;;;;;;0.97;0.87;;;3.70;97.30;;;;;;4962589;29;20447;-87
2024/02/24 07:38:01;;;;;;;2.00;1.20;;;4.00;97.30;;;;;;4962771;28;20462;-87
2024/02/24 07:40:34;;;;;;;1.30;1.20;;;4.10;97.30;;;;;;4962711;29;20438;-87
2024/02/24 07:43:03;;;;;;;1.10;1.00;;;4.10;97.30;;;;;;4958179;28;20420;-86
2024/02/24 07:45:31;;;;;;;1.87;1.47;;;4.10;97.30;;;;;;4958501;29;21008;-86
2024/02/24 07:48:22;;;;;;;1.00;0.90;;;4.20;97.30;;;;;;4939227;28;20522;-86
2024/02/24 07:51:03;;;;;;;;;;;;;;;;;;;;;
2024/02/24 07:53:33;;;;;;;8.23;1.03;;;4.40;97.30;;;;;;4942268;29;20468;-86
2024/02/24 07:56:01;;;;;;;0.97;0.87;;;4.40;97.30;;;;;;4942054;29;20543;-86
2024/02/24 07:58:33;;;;;;;2.10;1.10;;;4.50;97.30;;;;;;4939941;29;20447;-86
2024/02/24 08:01:02;;;;;;;3.53;1.77;;;4.60;97.30;;;;;;4938611;29;20452;-87
2024/02/24 08:03:41;;;;;;;1.10;1.00;;;4.70;97.30;;;;;;4929432;29;20464;-86
2024/02/24 08:06:12;;;;;;;0.90;0.80;;;4.80;97.30;;;;;;4932829;29;20479;-87
2024/02/24 08:08:41;;;;;;;1.00;0.90;;;4.90;97.30;;;;;;4938013;29;20515;-86
2024/02/24 08:11:39;;;;;;;0.90;0.80;;;5.00;97.30;;;;;;4932663;29;20954;-86
2024/02/24 08:14:13;;;;;;;0.90;0.80;;;5.20;97.30;;;;;;4934168;29;21005;-86
2024/02/24 08:16:41;;;;;;;0.90;0.80;;;5.50;97.30;;;;;;4938733;29;20468;-87
2024/02/24 08:19:13;;;;;;;1.00;0.90;;;5.70;97.30;;;;;;4938716;29;20852;-87
2024/02/24 08:21:51;;;;;;;1.33;1.23;;;5.80;97.30;;;;;;4933686;29;20432;-87
2024/02/24 08:24:39;;;;;;;1.00;0.90;;;5.90;97.30;;;;;;4939664;28;20455;-87
2024/02/24 08:27:13;;;;;;;1.00;0.90;;;6.00;97.30;;;;;;4933241;29;20777;-86
2024/02/24 08:29:41;;;;;;;1.00;0.90;;;6.10;97.30;;;;;;4936219;29;20820;-87
2024/02/24 08:32:13;;;;;;;0.90;0.80;;;6.20;97.30;;;;;;4933380;29;20435;-87
2024/02/24 08:35:24;;;;;;;;;;;;;;;;;;;;;
2024/02/24 08:37:52;;;;;;;1.00;0.90;;;6.50;97.30;;;;;;4938301;29;20429;-86
2024/02/24 08:40:34;;;;;;;;;;;;;;;;;;;;;
2024/02/24 08:43:02;;;;;;;0.90;0.80;;;6.60;97.30;;;;;;4934840;28;20411;-86
2024/02/24 08:46:03;;;;;;;0.97;0.87;;;6.70;97.30;;;;;;4938799;28;20447;-86
2024/02/24 08:48:31;;;;;;;1.10;1.00;;;6.90;97.30;;;;;;4937473;29;20419;-86
2024/02/24 08:51:12;;;;;;;0.90;0.80;;;7.00;97.30;;;;;;4934506;28;20807;-86
2024/02/24 08:54:14;;;;;;;1.20;1.10;;;7.10;97.30;;;;;;4933001;29;20579;-86
2024/02/24 08:56:43;;;;;;;1.17;1.07;;;7.20;97.30;;;;;;4933075;28;20869;-86
2024/02/24 08:59:12;;;;;;;0.93;0.83;;;7.30;97.30;;;;;;4936537;29;20427;-86
2024/02/24 09:01:53;;;;;;;;;;;;;;;;;;;;;
2024/02/24 09:04:22;;;;;;;0.90;0.80;;;7.60;97.30;;;;;;4933121;29;20446;-86
2024/02/24 09:07:22;;;;;;;1.00;0.90;;;7.80;97.30;;;;;;4936465;29;20424;-86
2024/02/24 09:10:03;;;;;;;0.90;0.80;;;7.90;96.90;;;;;;4936244;28;20942;-86
2024/02/24 09:12:52;;;;;;;1.00;0.90;;;7.90;96.80;;;;;;4936032;29;20455;-86
2024/02/24 09:15:31;;;;;;;1.00;0.90;;;7.80;96.40;;;;;;4932200;29;20467;-86
2024/02/24 09:18:07;;;;;;;0.97;0.87;;;7.80;96.20;;;;;;4932877;29;20438;-85
2024/02/24 09:20:32;;;;;;;0.93;0.83;;;7.80;96.40;;;;;;4932644;29;20424;-85
2024/02/24 09:23:02;;;;;;;0.90;0.80;;;7.70;96.10;;;;;;4935858;29;20886;-85
2024/02/24 09:25:41;;;;;;;1.00;0.90;;;7.70;96.20;;;;;;4935027;29;20202;-86
2024/02/24 09:28:12;;;;;;;2.97;1.13;;;7.70;96.20;;;;;;4929212;29;20427;-84
2024/02/24 09:30:41;;;;;;;0.90;0.90;;;7.70;96.70;;;;;;4936218;28;20478;-86
2024/02/24 09:33:13;;;;;;;0.90;0.80;;;7.80;96.60;;;;;;4933458;29;20702;-86
2024/02/24 09:35:41;;;;;;;1.33;1.23;;;7.80;96.50;;;;;;4935614;28;20436;-85
2024/02/24 09:38:13;;;;;;;1.10;1.10;;;7.90;96.20;;;;;;4934779;29;20423;-84
2024/02/24 09:40:41;;;;;;;0.90;0.80;;;7.90;96.30;;;;;;4932927;29;20431;-86
2024/02/24 09:43:12;;;;;;;1.47;1.37;;;7.90;96.00;;;;;;4928712;29;20419;-85
2024/02/24 09:46:02;;;;;;;1.00;0.90;;;7.90;96.20;;;;;;4932079;28;20443;-85
2024/02/24 09:48:41;;;;;;;1.40;1.30;;;7.80;96.30;;;;;;4932540;29;20436;-86
2024/02/24 09:51:13;;;;;;;1.13;1.03;;;7.80;96.30;;;;;;4928825;29;20432;-86
2024/02/24 09:53:52;;;;;;;0.90;0.80;;;7.80;96.10;;;;;;4933626;29;20534;-85
2024/02/24 09:56:23;;;;;;;1.10;1.00;;;8.00;96.30;;;;;;4931988;29;20515;-85
2024/02/24 09:59:14;;;;;;;1.00;0.90;;;8.20;96.10;;;;;;4932219;28;20427;-85
2024/02/24 10:01:55;;;;;;;1.00;0.90;;;8.30;95.90;;;;;;4932914;28;20419;-85
2024/02/24 10:07:34;;;;;;;0.90;0.80;;;8.50;96.10;;;;;;4892892;29;20433;-85
2024/02/24 10:10:03;;;;;;;0.97;0.87;;;8.60;95.50;;;;;;4892741;29;20420;-85
2024/02/24 10:12:32;;;;;;;1.00;0.90;;;8.60;95.40;;;;;;4892603;29;20465;-85
2024/02/24 10:15:23;;;;;;;1.00;0.90;;;8.90;95.30;;;;;;4878760;29;20546;-85
2024/02/24 10:18:32;;;;;;;1.03;0.93;;;9.30;95.70;;;;;;4903455;29;20851;-87
2024/02/24 10:21:31;;;;;;;3.43;1.67;;;9.60;93.60;;;;;;4885959;29;20433;-85
2024/02/24 10:24:23;;;;;;;1.00;0.90;;;9.90;93.90;;;;;;4900943;29;20423;-86
2024/02/24 10:27:20;;;;;;;1.10;1.00;;;9.90;92.60;;;;;;4934920;29;20434;-86
2024/02/24 10:30:23;;;;;;;1.47;1.47;;;9.80;92.90;;;;;;4935778;29;20434;-86
2024/02/24 10:36:12;;;;;;;0.80;0.70;;;10.00;92.50;;;;;;4933602;29;20451;-86
2024/02/24 10:38:50;;;;;;;1.00;0.90;;;10.00;93.00;;;;;;4933341;29;20426;-86
2024/02/24 10:41:17;;;;;;;6.73;1.47;;;10.00;93.70;;;;;;4932751;28;20434;-86
2024/02/24 10:43:43;;;;;;;1.20;1.10;;;10.10;92.90;;;;;;4931604;29;20420;-86
2024/02/24 10:46:09;;;;;;;1.20;1.10;;;10.20;93.10;;;;;;4931318;29;20526;-85
2024/02/24 10:48:34;;;;;;;1.40;1.30;;;10.20;92.80;;;;;;4931345;29;20945;-86
2024/02/24 10:51:00;;;;;;;1.10;1.00;;;10.30;92.60;;;;;;4934075;29;20172;-86
2024/02/24 10:53:27;;;;;;;0.80;0.80;;;10.30;92.40;;;;;;4940026;29;20583;-86
2024/02/24 10:55:54;;;;;;;0.90;0.80;;;10.10;91.30;;;;;;4937534;29;20207;-86
2024/02/24 10:58:21;;;;;;;2.40;1.33;;;9.90;91.70;;;;;;4936820;29;20952;-86
2024/02/24 11:00:50;;;;;;;0.90;0.80;;;9.80;92.30;;;;;;4937747;29;20426;-85
2024/02/24 11:03:19;;;;;;;0.90;0.80;;;9.70;92.30;;;;;;4937871;29;20437;-86
2024/02/24 11:05:51;;;;;;;0.83;0.73;;;9.70;92.80;;;;;;4937768;29;20439;-85
2024/02/24 11:08:36;;;;;;;2.83;1.03;;;9.70;93.30;;;;;;4938013;29;20442;-86
2024/02/24 11:11:10;;;;;;;0.90;0.80;;;9.60;92.60;;;;;;4933356;29;20510;-85
2024/02/24 11:13:36;;;;;;;1.13;1.03;;;9.60;93.00;;;;;;4939131;29;20501;-85
2024/02/24 11:16:04;;;;;;;2.30;1.47;;;9.70;93.00;;;;;;4937784;29;20491;-86
2024/02/24 11:18:48;;;;;;;2.23;0.97;;;9.90;92.70;;;;;;4937998;29;20187;-85
2024/02/24 11:21:19;;;;;;;1.10;1.00;;;10.00;92.60;;;;;;4936786;29;20415;-86
2024/02/24 11:23:46;;;;;;;0.90;0.80;;;10.00;92.20;;;;;;4961335;29;20439;-85
2024/02/24 11:26:12;;;;;;;1.10;1.00;;;9.90;92.20;;;;;;5009564;23;20490;-62
2024/02/24 11:28:44;;;;;;;2.87;2.67;;;9.90;92.60;;;;;;4972389;28;20421;-62
2024/02/24 11:31:16;;;;;;;1.97;1.83;;;9.90;93.10;;;;;;4950711;28;20672;-62
2024/02/24 11:33:42;;;;;;;1.17;1.07;;;9.90;92.40;;;;;;4935857;29;20470;-62
2024/02/24 11:36:09;;;;;;;1.67;1.30;;;9.90;92.00;;;;;;4943190;28;20424;-62
2024/02/24 11:38:35;;;;;;;1.00;0.80;;;9.80;91.70;;;;;;4937106;29;20933;-62
2024/02/24 11:41:04;;;;;;;1.17;1.07;;;9.80;92.20;;;;;;4938741;29;21003;-62
2024/02/24 11:43:30;;;;;;;1.20;1.10;;;10.00;91.70;;;;;;4933909;29;20188;-62
2024/02/24 11:45:55;;;;;;;1.13;1.13;;;10.10;90.90;;;;;;4937852;29;20528;-62
2024/02/24 11:48:22;;;;;;;1.00;0.90;;;10.20;91.30;;;;;;4934293;29;20180;-62
2024/02/24 11:50:48;;;;;;;1.00;0.90;;;10.20;90.80;;;;;;4936890;29;20290;-62
2024/02/24 11:53:16;;;;;;;1.47;1.10;;;10.10;91.00;;;;;;4935436;29;20571;-62
2024/02/24 11:55:42;;;;;;;0.83;0.73;;;10.10;91.00;;;;;;4943188;29;20494;-61
2024/02/24 11:58:08;;;;;;;1.73;1.63;;;10.10;91.00;;;;;;4938113;29;20979;-63
2024/02/24 12:00:38;;;;;;;1.60;1.53;;;10.20;91.00;;;;;;4932747;29;20439;-62
2024/02/24 12:03:05;;;;;;;0.90;0.80;;;10.20;90.30;;;;;;4934135;29;20438;-63
2024/02/24 12:05:31;;;;;;;1.00;0.90;;;10.30;90.70;;;;;;4933000;28;20939;-61
2024/02/24 12:08:05;;;;;;;1.30;1.20;;;10.50;90.70;;;;;;4944163;29;20833;-61
2024/02/24 12:10:36;;;;;;;0.90;0.80;;;10.60;89.50;;;;;;4940402;28;20815;-62
2024/02/24 12:13:06;;;;;;;0.80;0.70;;;10.60;89.50;;;;;;4948346;29;20478;-61
2024/02/24 12:15:46;;;;;;;1.10;1.00;;;10.50;89.50;;;;;;4928686;29;20957;-62
2024/02/24 12:18:12;;;;;;;1.10;1.00;;;10.40;89.60;;;;;;4932237;29;20420;-62
2024/02/24 12:20:40;;;;;;;0.83;0.73;;;10.30;90.20;;;;;;4942342;29;20461;-63
2024/02/24 12:23:07;;;;;;;0.97;0.87;;;10.20;90.50;;;;;;4926233;29;20463;-62
2024/02/24 12:25:33;;;;;;;1.20;1.10;;;10.10;90.70;;;;;;4930571;29;20516;-62
2024/02/24 12:28:00;;;;;;;1.07;1.00;;;10.00;89.90;;;;;;4929417;28;20450;-62
2024/02/24 12:30:32;;;;;;;1.20;1.10;;;9.90;89.60;;;;;;4939078;29;20444;-62
2024/02/24 12:32:58;;;;;;;1.00;0.90;;;9.90;89.50;;;;;;4935669;29;20459;-62
2024/02/24 12:35:24;;;;;;;0.90;0.80;;;9.80;89.60;;;;;;4940969;29;20434;-62
2024/02/24 12:37:52;;;;;;;1.00;0.90;;;9.80;89.70;;;;;;4936238;28;20676;-62
2024/02/24 12:40:34;;;;;;;1.17;1.07;;;9.90;90.20;;;;;;4931022;29;20516;-62
2024/02/24 12:43:01;;;;;;;2.50;1.03;;;9.90;90.30;;;;;;4936230;29;20424;-62
2024/02/24 12:45:27;;;;;;;0.90;0.80;;;9.90;89.90;;;;;;4939622;29;20907;-62
2024/02/24 12:47:53;;;;;;;2.90;1.23;;;9.90;90.20;;;;;;4933647;29;20426;-63
2024/02/24 12:50:23;;;;;;;1.03;0.93;;;9.90;90.60;;;;;;4933986;29;20482;-63
2024/02/24 12:52:50;;;;;;;0.80;0.70;;;9.80;90.20;;;;;;4935967;29;20963;-62
2024/02/24 12:55:16;;;;;;;1.57;1.43;;;9.80;90.40;;;;;;4935843;29;20443;-62
2024/02/24 12:57:42;;;;;;;1.30;1.20;;;9.80;90.80;;;;;;4933499;29;20423;-62
2024/02/24 13:00:08;;;;;;;1.27;1.10;;;9.90;90.40;;;;;;4933792;29;20954;-62
2024/02/24 13:02:34;;;;;;;2.23;1.77;;;9.80;89.60;;;;;;4927190;29;20326;-62
2024/02/24 13:05:00;;;;;;;1.57;1.47;;;9.80;89.90;;;;;;4938602;29;20978;-62
2024/02/24 13:07:26;;;;;;;1.27;1.17;;;9.80;89.80;;;;;;4936934;29;20503;-62
2024/02/24 13:09:52;;;;;;;0.90;0.80;;;9.80;89.40;;;;;;4926059;29;20464;-62
2024/02/24 13:12:18;;;;;;;0.90;0.80;;;9.80;89.50;;;;;;4924729;29;20825;-61
2024/02/24 13:14:44;;;;;;;0.90;0.80;;;9.80;89.40;;;;;;4935490;29;20172;-62
2024/02/24 13:17:09;;;;;;;1.20;1.10;;;9.90;89.60;;;;;;4938275;28;20231;-62
2024/02/24 13:19:35;;;;;;;0.90;0.80;;;10.00;90.20;;;;;;4925785;29;20180;-62
2024/02/24 13:22:00;;;;;;;1.10;1.00;;;10.30;89.90;;;;;;4937531;29;20259;-62
2024/02/24 13:24:26;;;;;;;1.07;0.97;;;10.90;88.20;;;;;;4938713;29;20190;-63
2024/02/24 13:26:51;;;;;;;0.90;0.80;;;11.10;86.90;;;;;;4948881;29;20242;-62
2024/02/24 13:29:17;;;;;;;0.90;0.80;;;11.00;87.10;;;;;;4943734;29;20219;-62
2024/02/24 13:31:43;;;;;;;1.20;1.10;;;11.50;86.40;;;;;;4930663;29;20231;-62
2024/02/24 13:34:09;;;;;;;0.90;0.80;;;12.10;86.80;;;;;;4938205;29;20204;-61
2024/02/24 13:36:34;;;;;;;1.10;1.00;;;12.60;84.40;;;;;;4937784;29;20442;-61
2024/02/24 13:39:00;;;;;;;0.80;0.70;;;12.60;83.90;;;;;;4940396;29;20218;-61
2024/02/24 13:41:27;;;;;;;0.90;0.80;;;11.70;84.50;;;;;;4942106;28;20282;-61
2024/02/24 13:43:52;;;;;;;1.00;0.90;;;11.10;86.60;;;;;;4943252;28;20175;-63
2024/02/24 13:46:18;;;;;;;1.00;0.90;;;10.80;87.30;;;;;;4942305;29;20419;-61
2024/02/24 13:48:43;;;;;;;0.90;0.80;;;10.50;88.10;;;;;;4932487;29;20194;-61
2024/02/24 13:51:09;;;;;;;0.90;0.80;;;10.30;88.70;;;;;;4936158;28;20207;-61
2024/02/24 13:53:34;;;;;;;1.00;0.90;;;10.20;89.40;;;;;;4937361;29;20207;-61
2024/02/24 13:56:00;;;;;;;1.07;1.00;;;10.30;89.30;;;;;;4930907;29;20184;-62
2024/02/24 13:58:26;;;;;;;1.00;0.90;;;10.30;89.20;;;;;;4929396;29;20242;-61
2024/02/24 14:00:52;;;;;;;1.07;0.97;;;10.40;89.50;;;;;;4929430;29;20191;-62
2024/02/24 14:03:17;;;;;;;1.00;0.90;;;11.10;88.20;;;;;;4944916;29;20183;-61
2024/02/24 14:05:43;;;;;;;1.00;0.90;;;11.00;87.30;;;;;;4926738;29;20444;-62
2024/02/24 14:08:11;;;;;;;1.00;0.90;;;10.70;88.10;;;;;;4925399;29;20184;-62
2024/02/24 14:10:42;;;;;;;1.43;0.93;;;10.40;88.60;;;;;;4928929;29;20496;-63
2024/02/24 14:13:08;;;;;;;1.00;0.90;;;10.20;88.90;;;;;;4926341;29;20463;-64
2024/02/24 14:15:33;;;;;;;1.00;0.90;;;10.00;89.40;;;;;;4928414;29;20428;-62
2024/02/24 14:17:59;;;;;;;1.10;1.00;;;9.80;89.70;;;;;;4931018;29;20256;-62
2024/02/24 14:20:31;;;;;;;0.90;0.80;;;9.70;89.90;;;;;;4928716;29;20902;-63
2024/02/24 14:23:00;;;;;;;1.00;0.90;;;9.60;90.20;;;;;;4938371;29;20648;-63
2024/02/24 14:25:26;;;;;;;0.90;0.80;;;9.60;90.60;;;;;;4929358;29;20479;-63
2024/02/24 14:27:52;;;;;;;0.90;0.80;;;9.60;90.60;;;;;;4929389;29;20518;-61
2024/02/24 14:30:18;;;;;;;1.37;1.27;;;9.60;90.90;;;;;;4928306;29;20258;-63
2024/02/24 14:32:44;;;;;;;0.90;0.80;;;9.60;90.70;;;;;;4929058;29;20521;-62
2024/02/24 14:35:12;;;;;;;0.90;0.80;;;9.60;91.10;;;;;;4937609;29;20431;-62
2024/02/24 14:37:37;;;;;;;1.10;1.00;;;9.50;91.10;;;;;;4930638;29;20434;-62
2024/02/24 14:40:04;;;;;;;2.30;1.73;;;9.60;91.60;;;;;;4926661;29;20436;-63
2024/02/24 14:42:30;;;;;;;0.90;0.80;;;9.60;91.80;;;;;;4929852;29;20204;-60
2024/02/24 14:44:56;;;;;;;1.13;1.03;;;9.60;91.70;;;;;;4931141;29;20892;-62
2024/02/24 14:47:23;;;;;;;1.00;0.90;;;9.60;91.90;;;;;;4930927;29;20506;-60
2024/02/24 14:49:49;;;;;;;0.90;0.80;;;9.60;91.80;;;;;;4930034;29;20656;-63
2024/02/24 14:52:16;;;;;;;0.90;0.80;;;9.60;91.60;;;;;;4931214;29;20471;-64
2024/02/24 14:54:42;;;;;;;1.33;1.27;;;9.60;91.60;;;;;;4945691;29;20219;-60
2024/02/24 14:57:11;;;;;;;1.83;1.60;;;9.60;91.70;;;;;;4930885;29;20994;-60
2024/02/24 14:59:43;;;;;;;1.00;0.90;;;10.10;91.20;;;;;;4929611;29;20191;-61
2024/02/24 15:02:09;;;;;;;1.00;0.90;;;10.10;90.00;;;;;;4932326;29;20579;-60
2024/02/24 15:04:35;;;;;;;4.20;2.03;;;9.90;90.30;;;;;;4934534;29;20431;-60
2024/02/24 15:07:00;;;;;;;0.90;0.80;;;10.50;90.40;;;;;;4934167;29;20517;-60
2024/02/24 15:09:27;;;;;;;1.30;1.20;;;11.20;88.70;;;;;;4934933;29;20230;-59
2024/02/24 15:11:53;;;;;;;1.10;1.00;;;11.40;87.30;;;;;;4934020;29;20526;-61
2024/02/24 15:14:18;;;;;;;1.30;1.20;;;12.00;86.20;;;;;;4932571;29;20603;-60
2024/02/24 15:16:47;;;;;;;1.10;1.00;;;12.10;85.40;;;;;;4933762;29;20415;-60
2024/02/24 15:19:14;;;;;;;1.00;0.90;;;12.00;84.90;;;;;;4938384;29;20175;-59
2024/02/24 15:21:39;;;;;;;1.17;1.10;;;11.50;85.80;;;;;;4939767;29;20451;-62
2024/02/24 15:24:05;;;;;;;1.43;1.20;;;11.70;85.80;;;;;;4931450;29;20821;-59
2024/02/24 15:26:34;;;;;;;5.40;2.50;;;12.00;84.60;;;;;;4927869;29;20272;-60
2024/02/24 15:29:00;;;;;;;1.43;1.33;;;11.60;85.00;;;;;;4928594;29;20502;-59
2024/02/24 15:31:26;;;;;;;3.37;1.63;;;11.00;86.40;;;;;;4933190;29;20980;-59
2024/02/24 15:33:51;;;;;;;1.20;1.10;;;10.50;87.80;;;;;;4936091;29;20467;-60
2024/02/24 15:36:17;;;;;;;0.90;0.80;;;10.00;88.50;;;;;;4936774;29;20678;-60
2024/02/24 15:38:43;;;;;;;1.90;1.87;;;9.80;89.50;;;;;;4937154;29;20176;-60
2024/02/24 15:41:09;;;;;;;1.73;1.63;;;9.70;89.90;;;;;;4931833;29;20196;-60
2024/02/24 15:43:36;;;;;;;1.00;0.90;;;9.70;89.30;;;;;;4938783;29;20645;-60
2024/02/24 15:46:02;;;;;;;1.20;1.03;;;9.60;88.90;;;;;;4924085;29;20764;-60
2024/02/24 15:48:27;;;;;;;1.57;0.87;;;9.40;89.30;;;;;;4929011;29;20424;-59
2024/02/24 15:50:53;;;;;;;1.10;1.00;;;9.30;89.70;;;;;;4933570;29;20321;-60
2024/02/24 15:53:18;;;;;;;1.20;1.10;;;9.20;89.80;;;;;;4932979;29;20200;-60
2024/02/24 15:55:44;;;;;;;1.10;1.00;;;9.20;90.10;;;;;;4947754;29;20599;-59
2024/02/24 15:58:10;;;;;;;0.80;0.70;;;9.20;90.00;;;;;;4941198;29;20565;-60
2024/02/24 16:00:36;;;;;;;0.90;0.80;;;9.10;90.20;;;;;;4941280;29;20448;-60
2024/02/24 16:03:02;;;;;;;1.10;1.00;;;9.10;90.50;;;;;;4941549;29;20180;-61
2024/02/24 16:05:28;;;;;;;0.97;0.93;;;9.10;90.60;;;;;;4933332;29;20814;-60
2024/02/24 16:07:53;;;;;;;1.00;0.90;;;9.00;90.80;;;;;;4933166;29;20422;-60
2024/02/24 16:10:19;;;;;;;1.30;0.90;;;9.00;90.80;;;;;;4933199;29;20184;-59
2024/02/24 16:12:45;;;;;;;1.00;0.90;;;9.00;90.80;;;;;;4928240;29;20219;-59
2024/02/24 16:15:10;;;;;;;2.37;2.00;;;8.90;90.90;;;;;;4933530;29;20724;-59
2024/02/24 16:17:36;;;;;;;1.50;1.40;;;8.90;91.30;;;;;;4931578;29;20547;-59
2024/02/24 16:20:02;;;;;;;1.63;1.63;;;8.80;91.40;;;;;;4920573;29;20222;-60
2024/02/24 16:22:28;;;;;;;1.00;0.90;;;8.80;91.80;;;;;;4923706;29;20538;-60
2024/02/24 16:24:53;;;;;;;1.10;1.00;;;8.70;91.60;;;;;;4926292;29;20173;-60
2024/02/24 16:27:19;;;;;;;1.00;0.90;;;8.70;91.70;;;;;;4918810;29;20338;-60
2024/02/24 16:29:44;;;;;;;0.80;0.70;;;8.70;91.80;;;;;;4917961;29;20180;-60
2024/02/24 16:32:10;;;;;;;1.00;0.90;;;8.80;91.90;;;;;;4941484;29;20204;-60
2024/02/24 16:34:35;;;;;;;0.97;0.87;;;8.70;92.00;;;;;;4913838;29;20685;-61
2024/02/24 16:37:01;;;;;;;3.47;1.23;;;8.70;92.50;;;;;;4914358;29;20220;-60
2024/02/24 16:39:27;;;;;;;0.90;0.80;;;8.70;92.30;;;;;;4917197;29;20720;-61
2024/02/24 16:41:55;;;;;;;1.10;1.00;;;8.70;92.30;;;;;;4919661;29;20199;-60
2024/02/24 16:44:20;;;;;;;2.77;2.63;;;8.70;92.10;;;;;;4916792;29;20184;-60
2024/02/24 16:46:46;;;;;;;2.40;1.77;;;8.70;92.10;;;;;;4937900;29;20797;-60
2024/02/24 16:49:12;;;;;;;1.67;1.00;;;8.70;92.50;;;;;;4945557;29;20176;-60
2024/02/24 16:51:38;;;;;;;1.00;0.90;;;8.60;92.30;;;;;;4932218;29;20447;-60
2024/02/24 16:54:03;;;;;;;1.10;1.00;;;8.60;92.20;;;;;;4930929;28;20243;-60
2024/02/24 16:56:29;;;;;;;2.80;0.97;;;8.50;91.90;;;;;;4932607;29;20454;-60
2024/02/24 16:58:55;;;;;;;0.90;0.80;;;8.50;92.10;;;;;;4930903;29;20183;-60
2024/02/24 17:01:21;;;;;;;1.20;1.10;;;8.40;91.90;;;;;;4932172;29;20212;-60
2024/02/24 17:03:47;;;;;;;0.83;0.73;;;8.40;91.90;;;;;;4930902;29;20696;-60
2024/02/24 17:06:12;;;;;;;0.90;0.80;;;8.30;92.10;;;;;;4932329;29;20424;-60
2024/02/24 17:08:38;;;;;;;1.17;1.10;;;8.30;92.20;;;;;;4930899;29;20556;-60
2024/02/24 17:11:04;;;;;;;0.90;0.80;;;8.20;92.40;;;;;;4930295;29;20243;-60
2024/02/24 17:13:29;;;;;;;1.40;1.30;;;8.10;92.60;;;;;;4939375;29;20251;-61
2024/02/24 17:15:55;;;;;;;0.90;0.80;;;8.10;92.80;;;;;;4931834;29;20186;-60
2024/02/24 17:18:20;;;;;;;1.00;0.90;;;8.00;92.80;;;;;;4937572;28;20195;-60
2024/02/24 17:20:46;;;;;;;1.00;0.90;;;7.90;92.90;;;;;;4929740;29;20207;-60
2024/02/24 17:23:14;;;;;;;1.03;0.93;;;7.90;93.00;;;;;;4930797;29;20556;-60
2024/02/24 17:25:40;;;;;;;2.63;1.93;;;7.80;92.90;;;;;;4928968;29;20263;-60
2024/02/24 17:28:06;;;;;;;5.70;1.73;;;7.80;93.20;;;;;;4934369;29;20462;-60
2024/02/24 17:30:35;;;;;;;2.03;1.63;;;7.70;93.00;;;;;;4934796;29;20518;-60
2024/02/24 17:33:04;;;;;;;1.20;1.10;;;7.70;93.10;;;;;;4929741;29;20482;-60
2024/02/24 17:35:30;;;;;;;1.07;0.97;;;7.60;93.20;;;;;;4931869;29;20486;-60
2024/02/24 17:37:57;;;;;;;0.90;0.80;;;7.50;93.30;;;;;;4937567;28;20427;-60
2024/02/24 17:40:23;;;;;;;1.00;0.90;;;7.40;93.50;;;;;;4929591;29;20186;-60
2024/02/24 17:42:48;;;;;;;1.27;1.17;;;7.40;93.70;;;;;;4930731;29;20423;-60
2024/02/24 17:45:14;;;;;;;2.40;1.10;;;7.30;93.80;;;;;;4931755;29;20188;-60
2024/02/24 17:47:39;;;;;;;2.57;2.37;;;7.30;93.70;;;;;;4937516;29;20702;-60
2024/02/24 17:50:05;;;;;;;1.23;1.13;;;7.30;93.90;;;;;;4929835;29;20180;-60
2024/02/24 17:52:31;;;;;;;1.10;1.00;;;7.20;93.70;;;;;;4931364;29;20196;-60
2024/02/24 17:54:57;;;;;;;9.23;2.40;;;7.20;93.80;;;;;;4933149;29;20434;-60
2024/02/24 17:57:23;;;;;;;7.50;1.53;;;7.20;93.70;;;;;;4937628;29;20184;-60
2024/02/24 17:59:49;;;;;;;1.73;1.40;;;7.20;93.70;;;;;;4938101;29;20474;-60
2024/02/24 18:02:14;;;;;;;1.33;1.23;;;7.10;93.90;;;;;;4934161;29;20221;-60
2024/02/24 18:04:43;;;;;;;0.90;0.80;;;7.10;94.00;;;;;;4941516;29;20254;-60
2024/02/24 18:07:09;;;;;;;1.27;1.17;;;6.90;94.30;;;;;;4933226;29;20653;-60
2024/02/24 18:09:36;;;;;;;17.07;1.83;;;6.90;94.50;;;;;;4934728;29;20482;-60
2024/02/24 18:12:01;;;;;;;5.63;1.83;;;6.90;94.50;;;;;;4938751;29;20458;-60
2024/02/24 18:14:27;;;;;;;7.67;2.80;;;6.80;94.50;;;;;;4929985;29;20463;-60
2024/02/24 18:16:52;;;;;;;1.73;1.60;;;6.80;94.60;;;;;;4931229;29;20188;-60
2024/02/24 18:19:20;;;;;;;4.63;4.33;;;6.80;94.70;;;;;;4936826;29;20570;-60
2024/02/24 18:21:45;;;;;;;1.07;0.97;;;6.70;94.80;;;;;;4937841;29;20198;-60
2024/02/24 18:24:12;;;;;;;1.83;1.73;;;6.70;95.20;;;;;;4929912;29;20803;-60
2024/02/24 18:26:37;;;;;;;1.10;1.00;;;6.50;95.40;;;;;;4931320;29;20235;-60
2024/02/24 18:29:03;;;;;;;1.00;0.90;;;6.40;95.70;;;;;;4931142;29;20431;-60
2024/02/24 18:31:28;;;;;;;1.07;0.97;;;6.40;95.70;;;;;;4937928;29;20207;-60
2024/02/24 18:33:54;;;;;;;1.43;1.33;;;6.30;95.90;;;;;;4937425;29;20199;-61
2024/02/24 18:36:20;;;;;;;5.13;1.67;;;6.20;96.30;;;;;;4933084;29;20195;-60